Time;durP1;ratioP1;P1;durP2;ratioP2;P2;SDS_P1;SDS_P2;PMS_P1;PMS_P2;Temp;Humidity;BMP_temperature;BMP_pressure;BME280_temperature;BME280_humidity;BME280_pressure;Samples;Min_cycle;Max_cycle;Signal;HPM_P1;HPM_P2
2022/11/02 07:33:31;;;;;;;8.50;2.85;;;11.00;99.90;;;;;;11007960;23;20500;-75
2022/11/02 07:38:33;;;;;;;6.55;2.72;;;11.10;99.90;;;;;;10307783;28;20087;-74
2022/11/02 07:43:35;;;;;;;9.77;2.83;;;11.10;99.90;;;;;;10295812;28;20042;-75
2022/11/02 07:48:38;;;;;;;6.30;2.97;;;11.10;99.90;;;;;;10295697;28;20456;-75
2022/11/02 07:53:40;;;;;;;7.90;2.55;;;11.20;99.90;;;;;;10297306;28;20101;-76
2022/11/02 07:58:42;;;;;;;9.02;2.67;;;11.20;99.90;;;;;;10335188;28;20058;-75
2022/11/02 08:03:45;;;;;;;5.97;2.72;;;11.30;99.90;;;;;;10333473;28;20101;-75
2022/11/02 08:08:47;;;;;;;8.05;2.70;;;11.40;99.90;;;;;;10294734;28;20102;-74
2022/11/02 08:13:49;;;;;;;7.10;2.45;;;11.50;99.90;;;;;;10290415;28;20460;-76
2022/11/02 08:18:52;;;;;;;10.18;2.22;;;11.70;99.90;;;;;;10289675;28;20490;-75
2022/11/02 08:23:54;;;;;;;7.03;2.50;;;11.90;99.90;;;;;;10313814;28;20081;-76
2022/11/02 08:28:56;;;;;;;5.88;1.95;;;12.00;99.90;;;;;;10330583;28;20056;-77
2022/11/02 08:33:59;;;;;;;6.40;2.10;;;12.10;99.90;;;;;;10311060;28;20069;-77
2022/11/02 08:39:01;;;;;;;9.30;2.17;;;12.30;99.90;;;;;;10297216;28;20077;-77
2022/11/02 08:44:03;;;;;;;6.43;2.17;;;12.40;99.90;;;;;;10291868;28;20121;-79
2022/11/02 08:49:07;;;;;;;15.27;2.50;;;12.60;99.90;;;;;;10289777;28;20054;-75
2022/11/02 08:54:09;;;;;;;8.10;2.10;;;12.70;99.90;;;;;;10327423;28;20074;-74
2022/11/02 08:59:11;;;;;;;8.70;1.92;;;12.80;99.90;;;;;;10291550;28;20070;-74
2022/11/02 09:04:14;;;;;;;5.57;1.70;;;12.90;99.90;;;;;;10300789;28;20571;-73
2022/11/02 09:09:16;;;;;;;8.35;2.00;;;13.10;99.90;;;;;;10288215;28;20078;-76
2022/11/02 09:14:17;;;;;;;6.72;1.90;;;13.20;99.90;;;;;;10288696;28;20050;-75
2022/11/02 09:19:21;;;;;;;9.48;1.70;;;13.30;99.90;;;;;;10289006;28;20076;-75
2022/11/02 09:24:22;;;;;;;7.72;1.90;;;13.50;99.90;;;;;;10326094;28;20460;-75
2022/11/02 09:29:24;;;;;;;5.93;1.60;;;13.70;99.90;;;;;;10331052;28;20558;-75
2022/11/02 09:34:28;;;;;;;10.27;2.08;;;13.80;99.90;;;;;;10335643;28;20058;-75
2022/11/02 09:39:29;;;;;;;9.00;1.60;;;13.90;99.90;;;;;;10334298;28;20043;-75
2022/11/02 09:44:43;;;;;;;7.82;1.65;;;14.10;99.90;;;;;;10334236;28;20053;-75
2022/11/02 09:49:47;;;;;;;10.98;1.90;;;14.20;99.90;;;;;;10334819;28;20050;-75
2022/11/02 09:54:53;;;;;;;7.38;1.42;;;14.10;99.90;;;;;;10326590;28;20415;-75
2022/11/02 09:59:55;;;;;;;9.77;1.55;;;14.20;99.90;;;;;;10342442;28;20450;-73
2022/11/02 10:05:30;;;;;;;6.93;1.50;;;14.10;99.90;;;;;;10344014;28;20054;-75
2022/11/02 10:10:37;;;;;;;8.40;1.92;;;14.10;99.90;;;;;;10288306;28;20055;-75
2022/11/02 10:15:45;;;;;;;8.48;1.73;;;14.20;99.90;;;;;;10300797;28;20057;-75
2022/11/02 10:20:51;;;;;;;12.50;2.03;;;14.30;99.90;;;;;;10299348;28;20051;-74
2022/11/02 10:25:54;;;;;;;8.43;1.85;;;14.30;99.90;;;;;;10295560;28;20149;-74
2022/11/02 10:30:57;;;;;;;7.75;1.65;;;14.40;99.90;;;;;;10295851;28;20059;-74
2022/11/02 10:36:22;;;;;;;8.50;1.58;;;14.50;99.90;;;;;;10305839;28;20448;-74
2022/11/02 10:41:41;;;;;;;9.05;2.00;;;14.50;99.90;;;;;;10317860;28;20086;-73
2022/11/02 10:46:57;;;;;;;6.93;1.58;;;14.60;99.90;;;;;;10333794;28;20212;-73
2022/11/02 10:52:00;;;;;;;6.97;1.70;;;14.70;99.90;;;;;;10329687;28;20086;-72
2022/11/02 10:57:12;;;;;;;8.23;1.80;;;14.80;99.90;;;;;;10311407;28;20101;-72
2022/11/02 11:02:15;;;;;;;18.02;6.25;;;14.90;99.90;;;;;;10292602;28;20596;-71
2022/11/02 11:07:26;;;;;;;17.98;5.38;;;14.90;99.90;;;;;;10311930;28;20050;-76
2022/11/02 11:12:32;;;;;;;9.77;2.00;;;15.10;99.90;;;;;;10293091;28;20050;-78
2022/11/02 11:17:37;;;;;;;9.70;1.75;;;15.20;99.90;;;;;;10293537;28;20483;-74
2022/11/02 11:22:40;;;;;;;6.60;1.52;;;15.20;99.90;;;;;;10294563;28;20050;-74
2022/11/02 11:27:46;;;;;;;6.25;1.50;;;15.30;99.90;;;;;;10316344;28;20054;-74
2022/11/02 11:32:48;;;;;;;8.73;1.70;;;15.20;99.90;;;;;;10332619;28;20050;-73
2022/11/02 11:37:56;;;;;;;6.68;1.80;;;15.10;99.90;;;;;;10332883;28;20054;-73
2022/11/02 11:42:58;;;;;;;7.85;1.55;;;15.10;99.60;;;;;;10313766;28;20046;-74
2022/11/02 11:48:07;;;;;;;8.38;1.48;;;15.20;99.90;;;;;;10291291;28;20054;-75
2022/11/02 11:53:18;;;;;;;5.38;1.50;;;15.20;99.90;;;;;;10292927;28;20059;-75
2022/11/02 11:58:22;;;;;;;10.05;1.83;;;15.30;99.90;;;;;;10336429;28;20046;-76
2022/11/02 12:03:24;;;;;;;7.22;2.22;;;15.20;99.30;;;;;;10340381;28;20056;-75
2022/11/02 12:08:46;;;;;;;6.90;1.60;;;15.20;99.50;;;;;;10348640;28;20051;-75
2022/11/02 12:14:09;;;;;;;6.20;1.60;;;15.20;99.10;;;;;;10349616;28;20106;-74
2022/11/02 12:19:25;;;;;;;6.72;1.40;;;15.50;98.60;;;;;;10348745;28;20508;-76
2022/11/02 12:24:47;;;;;;;6.05;1.30;;;16.00;98.10;;;;;;10341560;28;20104;-75
2022/11/02 12:30:11;;;;;;;5.68;1.38;;;16.30;97.90;;;;;;10335984;28;20388;-74
2022/11/02 12:35:27;;;;;;;7.20;1.40;;;16.50;97.30;;;;;;10334941;28;20054;-75
2022/11/02 12:40:47;;;;;;;5.82;1.30;;;16.90;97.30;;;;;;10340771;28;20113;-75
2022/11/02 12:45:57;;;;;;;5.05;1.25;;;17.40;95.50;;;;;;10353841;28;20113;-75
2022/11/02 12:51:08;;;;;;;6.32;1.40;;;17.50;94.90;;;;;;10363768;28;20066;-78
2022/11/02 12:56:19;;;;;;;9.18;2.95;;;17.70;93.40;;;;;;10365636;28;20061;-76
2022/11/02 13:01:28;;;;;;;6.15;1.55;;;18.10;92.90;;;;;;10364682;28;20054;-73
2022/11/02 13:06:35;;;;;;;7.43;1.45;;;18.40;92.20;;;;;;10364120;28;20068;-75
2022/11/02 13:11:43;;;;;;;5.45;1.50;;;19.30;91.40;;;;;;10358976;28;20050;-74
2022/11/02 13:16:50;;;;;;;6.47;1.60;;;20.00;87.70;;;;;;10345491;28;20074;-75
2022/11/02 13:21:55;;;;;;;4.43;1.20;;;20.60;83.20;;;;;;10342788;28;20109;-75
2022/11/02 13:27:04;;;;;;;4.50;1.30;;;22.90;80.10;;;;;;10342318;28;20054;-75
2022/11/02 13:32:13;;;;;;;5.15;1.48;;;27.10;67.20;;;;;;10344079;28;20515;-74
2022/11/02 13:37:20;;;;;;;5.25;1.30;;;32.40;51.90;;;;;;10310083;28;20047;-75
2022/11/02 13:43:03;;;;;;;6.80;1.98;;;33.20;46.70;;;;;;10302517;28;20492;-74
2022/11/02 13:48:36;;;;;;;4.20;1.30;;;33.50;44.50;;;;;;10302658;28;20698;-75
2022/11/02 13:53:41;;;;;;;5.40;1.55;;;33.20;43.60;;;;;;10337545;28;20084;-74
2022/11/02 13:58:49;;;;;;;4.03;1.20;;;33.40;44.10;;;;;;10334766;28;20078;-77
2022/11/02 14:03:54;;;;;;;3.92;1.15;;;33.00;43.90;;;;;;10350018;28;20046;-76
2022/11/02 14:09:00;;;;;;;3.40;1.20;;;31.30;44.20;;;;;;10342878;28;20069;-75
2022/11/02 14:14:19;;;;;;;6.05;1.40;;;30.40;45.30;;;;;;10340208;28;20054;-77
2022/11/02 14:19:32;;;;;;;4.97;1.27;;;31.00;45.30;;;;;;10305121;28;20059;-75
2022/11/02 14:25:09;;;;;;;6.65;1.42;;;31.10;44.00;;;;;;10298533;28;20054;-75
2022/11/02 14:30:45;;;;;;;4.25;1.40;;;31.50;43.90;;;;;;10302734;28;20054;-76
2022/11/02 14:35:57;;;;;;;4.30;1.48;;;31.90;43.30;;;;;;10327790;28;20066;-77
2022/11/02 14:41:15;;;;;;;4.18;1.25;;;32.10;42.70;;;;;;10297837;28;20102;-73
2022/11/02 14:46:38;;;;;;;4.47;1.33;;;32.20;42.40;;;;;;10296150;28;20074;-74
2022/11/02 14:51:41;;;;;;;4.00;1.30;;;31.50;42.60;;;;;;10297029;28;20353;-75
2022/11/02 14:56:50;;;;;;;7.57;1.70;;;31.10;44.70;;;;;;10293761;28;20059;-74
2022/11/02 15:01:57;;;;;;;6.90;1.65;;;31.30;43.80;;;;;;10299663;28;20559;-75
2022/11/02 15:07:02;;;;;;;4.07;1.23;;;31.30;42.70;;;;;;10300258;28;20476;-74
2022/11/02 15:12:31;;;;;;;4.68;1.40;;;30.90;43.50;;;;;;10326362;28;20058;-73
2022/11/02 15:18:23;;;;;;;5.60;1.23;;;29.90;43.90;;;;;;10334599;28;20117;-75
2022/11/02 15:23:29;;;;;;;7.10;1.73;;;28.10;47.10;;;;;;10267378;28;20111;-72
2022/11/02 15:28:34;;;;;;;3.58;1.23;;;27.90;47.10;;;;;;10335842;28;20480;-74
2022/11/02 15:33:42;;;;;;;6.20;2.08;;;27.30;47.80;;;;;;10296846;28;20488;-74
2022/11/02 15:38:49;;;;;;;4.53;1.35;;;26.50;49.20;;;;;;10336535;28;20050;-75
2022/11/02 15:44:32;;;;;;;5.75;1.35;;;25.40;50.60;;;;;;10321870;28;20113;-74
2022/11/02 15:50:00;;;;;;;4.63;1.42;;;24.20;53.10;;;;;;10247539;28;20082;-75
2022/11/02 15:55:17;;;;;;;7.32;1.60;;;23.30;55.90;;;;;;10290628;28;20508;-75
2022/11/02 16:00:20;;;;;;;8.00;2.10;;;22.40;58.70;;;;;;10325811;28;20050;-73
2022/11/02 16:05:26;;;;;;;6.20;1.67;;;21.60;60.00;;;;;;10335102;28;20406;-76
2022/11/02 16:10:31;;;;;;;5.35;1.50;;;20.90;61.60;;;;;;10333777;28;20113;-77
2022/11/02 16:15:33;;;;;;;6.35;1.50;;;20.40;63.90;;;;;;10332342;28;20054;-72
2022/11/02 16:20:39;;;;;;;7.07;2.05;;;19.90;65.50;;;;;;10332189;28;20424;-75
2022/11/02 16:25:43;;;;;;;6.50;1.55;;;19.40;66.40;;;;;;10335268;28;20508;-77
2022/11/02 16:31:05;;;;;;;4.43;1.55;;;19.00;68.50;;;;;;10327740;28;20054;-74
2022/11/02 16:36:11;;;;;;;8.95;2.22;;;18.60;69.00;;;;;;10316850;28;20059;-73
2022/11/02 16:41:14;;;;;;;8.98;2.40;;;18.00;71.70;;;;;;10296652;28;20051;-75
2022/11/02 16:46:17;;;;;;;15.07;6.70;;;17.70;73.30;;;;;;10301918;28;20058;-74
2022/11/02 16:51:23;;;;;;;9.88;2.60;;;17.30;74.70;;;;;;10309207;28;20050;-75
2022/11/02 16:56:29;;;;;;;8.43;2.97;;;17.10;76.60;;;;;;10324178;28;20058;-73
2022/11/02 17:01:38;;;;;;;8.80;2.92;;;16.80;77.60;;;;;;10316260;28;20057;-73
2022/11/02 17:06:43;;;;;;;;;;;16.60;78.80;;;;;;10326241;28;20521;-75
2022/11/02 17:11:45;;;;;;;6.88;2.70;;;16.50;80.90;;;;;;10308498;28;20327;-76
2022/11/02 17:16:59;;;;;;;14.48;4.93;;;16.20;82.20;;;;;;10322178;28;20054;-75
2022/11/02 17:22:12;;;;;;;14.50;5.93;;;16.00;84.40;;;;;;10324973;28;20050;-76
2022/11/02 17:27:24;;;;;;;10.57;3.78;;;15.80;85.60;;;;;;10321213;28;20408;-76
2022/11/02 17:32:26;;;;;;;8.80;3.20;;;15.50;88.60;;;;;;10319521;28;20069;-74
2022/11/02 17:37:31;;;;;;;8.27;2.85;;;15.40;90.30;;;;;;10326377;28;20106;-73
2022/11/02 17:47:56;;;;;;;10.02;4.10;;;15.10;91.90;;;;;;10317796;28;20050;-74
2022/11/02 17:53:00;;;;;;;9.95;4.10;;;14.80;92.80;;;;;;10333794;28;20055;-74
2022/11/02 17:58:02;;;;;;;8.30;3.70;;;14.70;93.50;;;;;;10333188;28;20116;-73
2022/11/02 18:03:05;;;;;;;10.77;4.57;;;14.50;94.10;;;;;;10330828;28;20146;-76
2022/11/02 18:08:10;;;;;;;9.18;4.85;;;14.20;94.50;;;;;;10329413;28;20074;-74
2022/11/02 18:13:13;;;;;;;8.02;3.80;;;14.10;95.30;;;;;;10297947;28;20057;-75
2022/11/02 18:18:15;;;;;;;12.25;3.85;;;14.00;95.90;;;;;;10304367;28;20087;-75
2022/11/02 18:23:19;;;;;;;12.52;5.22;;;13.90;96.40;;;;;;10316485;28;20051;-75
2022/11/02 18:28:21;;;;;;;12.75;5.80;;;13.80;96.60;;;;;;10312687;28;20134;-76
2022/11/02 18:33:22;;;;;;;7.65;3.67;;;13.40;97.20;;;;;;10324276;28;20109;-75
2022/11/02 18:38:26;;;;;;;8.70;3.30;;;13.40;97.60;;;;;;10334708;28;20503;-75
2022/11/02 18:43:27;;;;;;;6.97;2.88;;;13.20;97.80;;;;;;10332801;28;20074;-75
2022/11/02 18:48:29;;;;;;;6.25;3.00;;;13.10;98.30;;;;;;10331996;28;20153;-75
2022/11/02 18:53:32;;;;;;;9.00;3.20;;;13.10;98.50;;;;;;10332724;28;20093;-74
2022/11/02 18:58:34;;;;;;;8.48;3.58;;;13.00;98.50;;;;;;10330867;28;20090;-77
2022/11/02 19:03:36;;;;;;;9.52;2.65;;;12.90;98.90;;;;;;10329511;28;20085;-76
2022/11/02 19:13:59;;;;;;;7.25;2.70;;;12.50;99.80;;;;;;10331942;28;20050;-73
2022/11/02 19:19:01;;;;;;;7.45;3.55;;;12.50;99.20;;;;;;10331006;28;20519;-75
2022/11/02 19:24:06;;;;;;;9.88;3.80;;;12.50;99.90;;;;;;10328403;28;20054;-74
2022/11/02 19:29:08;;;;;;;12.23;5.13;;;12.60;99.90;;;;;;10331961;28;20069;-74
2022/11/02 19:34:10;;;;;;;9.20;3.55;;;12.40;99.90;;;;;;10319405;28;20082;-76
2022/11/02 19:39:13;;;;;;;14.23;4.90;;;12.40;99.90;;;;;;10328917;28;20054;-76
2022/11/02 19:44:15;;;;;;;9.40;3.55;;;12.20;99.90;;;;;;10330635;28;20461;-74
2022/11/02 19:49:17;;;;;;;9.85;3.33;;;12.10;99.90;;;;;;10330395;28;20066;-76
2022/11/02 19:54:21;;;;;;;9.85;3.90;;;12.10;99.90;;;;;;10330229;28;20050;-79
2022/11/02 19:59:22;;;;;;;9.80;3.83;;;11.90;99.90;;;;;;10327169;28;20096;-80
2022/11/02 20:04:25;;;;;;;9.77;3.63;;;11.90;99.90;;;;;;10327704;28;20082;-79
2022/11/02 20:09:28;;;;;;;9.57;3.50;;;11.80;99.90;;;;;;10328622;28;20046;-76
2022/11/02 20:14:32;;;;;;;9.13;4.10;;;11.30;99.90;;;;;;10326474;28;20389;-77
2022/11/02 20:19:34;;;;;;;8.57;3.70;;;11.40;99.90;;;;;;10328637;28;20105;-78
2022/11/02 20:24:38;;;;;;;11.38;5.65;;;11.50;99.90;;;;;;10327829;28;20070;-75
2022/11/02 20:29:40;;;;;;;10.40;4.75;;;11.50;99.90;;;;;;10328961;28;20105;-77
2022/11/02 20:34:42;;;;;;;10.57;4.72;;;11.60;99.90;;;;;;10325764;28;20058;-76
2022/11/02 20:39:45;;;;;;;8.80;4.45;;;11.60;99.90;;;;;;10328517;28;20058;-76
2022/11/02 20:44:48;;;;;;;10.57;4.40;;;11.60;99.90;;;;;;10313249;28;20069;-75
2022/11/02 20:49:50;;;;;;;10.10;4.50;;;11.60;99.90;;;;;;10328599;28;20145;-76
2022/11/02 20:54:53;;;;;;;9.93;4.50;;;11.50;99.90;;;;;;10326549;28;20081;-74
2022/11/02 20:59:55;;;;;;;9.20;4.00;;;11.50;99.90;;;;;;10326619;28;20137;-75
2022/11/02 21:04:57;;;;;;;9.20;3.97;;;11.50;99.90;;;;;;10347613;28;20124;-75
2022/11/02 21:10:00;;;;;;;10.63;4.05;;;11.30;99.90;;;;;;10325902;28;20484;-75
2022/11/02 21:15:02;;;;;;;10.40;4.50;;;11.20;99.90;;;;;;10326623;28;20092;-76
2022/11/02 21:20:07;;;;;;;8.05;4.15;;;11.10;99.90;;;;;;10326451;28;20054;-76
2022/11/02 21:25:11;;;;;;;8.95;3.88;;;11.00;99.90;;;;;;10318038;28;20389;-77
2022/11/02 21:30:14;;;;;;;9.18;4.68;;;10.80;99.90;;;;;;10334785;28;20063;-75
2022/11/02 21:35:16;;;;;;;12.55;4.45;;;10.80;99.90;;;;;;10338287;28;20062;-76
2022/11/02 21:40:19;;;;;;;11.35;4.55;;;10.90;99.90;;;;;;10355197;28;20054;-76
2022/11/02 21:45:21;;;;;;;13.10;4.63;;;10.70;99.90;;;;;;10333270;28;20140;-77
2022/11/02 21:50:22;;;;;;;10.02;4.43;;;10.50;99.90;;;;;;10335760;28;20151;-76
2022/11/02 21:55:26;;;;;;;8.88;4.57;;;10.60;99.90;;;;;;10333505;28;20053;-76
2022/11/02 22:01:42;;;;;;;9.45;4.47;;;10.70;99.90;;;;;;10317904;28;20113;-75
2022/11/02 22:05:56;;;;;;;12.73;4.95;;;10.80;99.90;;;;;;10335752;28;20130;-77
2022/11/02 22:10:59;;;;;;;9.17;4.57;;;10.70;99.90;;;;;;10337589;28;20062;-74
2022/11/02 22:16:13;;;;;;;10.13;5.03;;;10.70;99.90;;;;;;10335874;28;20046;-75
2022/11/02 22:21:18;;;;;;;13.57;4.90;;;10.70;99.90;;;;;;10334936;28;20050;-75
2022/11/02 22:26:24;;;;;;;9.82;4.55;;;10.50;99.90;;;;;;10337039;28;20489;-77
2022/11/02 22:31:28;;;;;;;9.55;4.70;;;10.50;99.90;;;;;;10301069;28;20133;-75
2022/11/02 22:36:32;;;;;;;9.88;4.25;;;10.40;99.90;;;;;;10336246;28;20096;-76
2022/11/02 22:41:38;;;;;;;9.68;4.55;;;10.20;99.90;;;;;;10337189;28;20455;-76
2022/11/02 22:46:42;;;;;;;8.25;4.28;;;9.90;99.90;;;;;;10337208;28;20112;-75
2022/11/02 22:51:45;;;;;;;13.40;4.72;;;9.90;99.90;;;;;;10331358;28;20105;-76
2022/11/02 22:56:49;;;;;;;12.27;6.15;;;10.00;99.90;;;;;;10324727;28;20051;-77
